createdAt,value
2023-02-17T00:01:16.225Z,-0.33
2023-02-17T00:03:43.026Z,-0.36
2023-02-17T00:06:10.944Z,-0.38
2023-02-17T00:08:37.980Z,-0.38
2023-02-17T00:11:05.847Z,-0.37
2023-02-17T00:13:35.337Z,-0.36
2023-02-17T00:16:07.776Z,-0.35
2023-02-17T00:18:34.692Z,-0.33
2023-02-17T00:21:11.453Z,-0.32
2023-02-17T00:23:38.217Z,-0.31
2023-02-17T00:26:17.423Z,-0.29
2023-02-17T00:28:44.842Z,-0.27
2023-02-17T00:31:18.584Z,-0.27
2023-02-17T00:33:46.035Z,-0.28
2023-02-17T00:36:20.999Z,-0.30
2023-02-17T00:38:51.150Z,-0.34
2023-02-17T00:41:20.301Z,-0.36
2023-02-17T00:43:49.787Z,-0.38
2023-02-17T00:46:17.974Z,-0.40
2023-02-17T00:48:48.558Z,-0.42
2023-02-17T00:51:28.228Z,-0.42
2023-02-17T00:54:00.936Z,-0.42
2023-02-17T00:56:27.695Z,-0.42
2023-02-17T00:58:54.394Z,-0.42
2023-02-17T01:01:21.313Z,-0.42
2023-02-17T01:03:50.407Z,-0.42
2023-02-17T01:06:35.168Z,-0.44
2023-02-17T01:09:04.149Z,-0.47
2023-02-17T01:11:33.252Z,-0.50
2023-02-17T01:14:01.638Z,-0.54
2023-02-17T01:16:35.372Z,-0.57
2023-02-17T01:19:11.417Z,-0.61
2023-02-17T01:21:38.617Z,-0.66
2023-02-17T01:24:07.924Z,-0.69
2023-02-17T01:26:36.689Z,-0.71
2023-02-17T01:29:06.930Z,-0.74
2023-02-17T01:31:36.995Z,-0.76
2023-02-17T01:34:06.673Z,-0.77
2023-02-17T01:36:34.605Z,-0.77
2023-02-17T01:39:13.861Z,-0.78
2023-02-17T01:41:42.723Z,-0.78
2023-02-17T01:44:16.337Z,-0.79
2023-02-17T01:46:49.133Z,-0.82
2023-02-17T01:49:36.170Z,-0.83
2023-02-17T01:52:06.121Z,-0.80
2023-02-17T01:54:46.592Z,-0.75
2023-02-17T01:57:17.653Z,-0.73
2023-02-17T01:59:45.299Z,-0.72
2023-02-17T02:02:12.609Z,-0.71
2023-02-17T02:04:44.536Z,-0.72
2023-02-17T02:07:14.672Z,-0.76
2023-02-17T02:09:48.271Z,-0.81
2023-02-17T02:12:19.586Z,-0.85
2023-02-17T02:14:48.108Z,-0.88
2023-02-17T02:17:44.290Z,-0.93
2023-02-17T02:20:32.493Z,-0.95
2023-02-17T02:23:12.844Z,-0.95
2023-02-17T02:25:57.919Z,-0.94
2023-02-17T02:28:46.742Z,-0.94
2023-02-17T02:31:53.484Z,-0.93
2023-02-17T02:34:25.187Z,-0.89
2023-02-17T02:36:54.875Z,-0.84
2023-02-17T02:39:27.825Z,-0.80
2023-02-17T02:42:01.084Z,-0.77
2023-02-17T02:44:28.005Z,-0.74
2023-02-17T02:47:37.977Z,-0.71
2023-02-17T02:50:05.850Z,-0.68
2023-02-17T02:52:55.733Z,-0.66
2023-02-17T02:55:37.182Z,-0.67
2023-02-17T02:58:34.571Z,-0.68
2023-02-17T03:01:26.893Z,-0.68
2023-02-17T03:04:10.391Z,-0.65
2023-02-17T03:06:48.861Z,-0.61
2023-02-17T03:09:25.450Z,-0.57
2023-02-17T03:11:58.628Z,-0.54
2023-02-17T03:14:28.069Z,-0.51
2023-02-17T03:16:55.136Z,-0.48
2023-02-17T03:19:25.364Z,-0.43
2023-02-17T03:21:58.754Z,-0.39
2023-02-17T03:24:25.651Z,-0.36
2023-02-17T03:26:52.884Z,-0.34
2023-02-17T03:29:19.876Z,-0.30
2023-02-17T03:31:49.286Z,-0.26
2023-02-17T03:34:24.583Z,-0.22
2023-02-17T03:36:52.563Z,-0.19
2023-02-17T03:39:19.455Z,-0.15
2023-02-17T03:41:47.624Z,-0.11
2023-02-17T03:44:15.672Z,-0.06
2023-02-17T03:46:45.137Z,-0.04
2023-02-17T03:49:13.699Z,-0.02
2023-02-17T03:51:49.736Z,-0.00
2023-02-17T03:54:20.837Z,0.00
2023-02-17T03:56:47.660Z,0.00
2023-02-17T03:59:21.024Z,-0.01
2023-02-17T04:01:47.803Z,-0.01
2023-02-17T04:04:19.322Z,-0.01
2023-02-17T04:06:46.356Z,-0.03
2023-02-17T04:09:13.079Z,-0.06
2023-02-17T04:11:39.836Z,-0.06
2023-02-17T04:14:07.693Z,-0.06
2023-02-17T04:16:34.619Z,-0.05
2023-02-17T04:19:01.495Z,-0.04
2023-02-17T04:21:30.522Z,-0.03
2023-02-17T04:23:59.442Z,-0.03
2023-02-17T04:26:29.576Z,-0.04
2023-02-17T04:28:56.413Z,-0.06
2023-02-17T04:31:25.349Z,-0.07
2023-02-17T04:33:54.610Z,-0.09
2023-02-17T04:36:22.018Z,-0.12
2023-02-17T04:38:48.776Z,-0.15
2023-02-17T04:41:15.544Z,-0.17
2023-02-17T04:43:42.546Z,-0.19
2023-02-17T04:46:11.393Z,-0.21
2023-02-17T04:48:38.373Z,-0.24
2023-02-17T04:51:05.578Z,-0.25
2023-02-17T04:53:34.634Z,-0.25
2023-02-17T04:56:06.461Z,-0.25
2023-02-17T04:58:33.702Z,-0.25
2023-02-17T05:01:00.562Z,-0.24
2023-02-17T05:03:27.915Z,-0.23
2023-02-17T05:05:54.826Z,-0.20
2023-02-17T05:08:21.558Z,-0.17
2023-02-17T05:10:50.906Z,-0.14
2023-02-17T05:13:18.522Z,-0.09
2023-02-17T05:15:47.906Z,-0.04
2023-02-17T05:18:16.798Z,0.01
2023-02-17T05:20:43.823Z,0.07
2023-02-17T05:23:10.719Z,0.11
2023-02-17T05:25:37.611Z,0.15
2023-02-17T05:28:06.047Z,0.20
2023-02-17T05:30:32.830Z,0.22
2023-02-17T05:33:00.392Z,0.24
2023-02-17T05:35:27.297Z,0.26
2023-02-17T05:37:54.125Z,0.30
2023-02-17T05:40:20.912Z,0.32
2023-02-17T05:42:47.661Z,0.34
2023-02-17T05:45:14.464Z,0.36
2023-02-17T05:47:42.593Z,0.38
2023-02-17T05:50:09.634Z,0.39
2023-02-17T05:52:36.409Z,0.40
2023-02-17T05:55:12.014Z,0.41
2023-02-17T05:57:38.716Z,0.42
2023-02-17T06:00:06.070Z,0.44
2023-02-17T06:02:39.060Z,0.45
2023-02-17T06:05:08.642Z,0.47
2023-02-17T06:07:37.656Z,0.50
2023-02-17T06:10:08.002Z,0.54
2023-02-17T06:12:35.423Z,0.57
2023-02-17T06:15:02.569Z,0.62
2023-02-17T06:17:29.366Z,0.66
2023-02-17T06:19:56.144Z,0.72
2023-02-17T06:22:25.621Z,0.78
2023-02-17T06:24:52.353Z,0.85
2023-02-17T06:27:19.191Z,0.94
2023-02-17T06:29:45.971Z,1.02
2023-02-17T06:32:13.008Z,1.11
2023-02-17T06:34:39.905Z,1.20
2023-02-17T06:37:07.883Z,1.28
2023-02-17T06:39:34.583Z,1.36
2023-02-17T06:42:01.358Z,1.44
2023-02-17T06:44:28.150Z,1.53
2023-02-17T06:46:54.924Z,1.61
2023-02-17T06:49:21.937Z,1.69
2023-02-17T06:51:48.823Z,1.77
2023-02-17T06:54:18.174Z,1.85
2023-02-17T06:56:45.126Z,1.92
2023-02-17T06:59:11.819Z,2.00
2023-02-17T07:01:41.957Z,2.07
2023-02-17T07:04:08.936Z,2.15
2023-02-17T07:06:35.673Z,2.21
2023-02-17T07:09:02.867Z,2.27
2023-02-17T07:11:33.886Z,2.34
2023-02-17T07:14:00.715Z,2.42
2023-02-17T07:16:27.597Z,2.51
2023-02-17T07:18:54.418Z,2.61
2023-02-17T07:21:21.342Z,2.71
2023-02-17T07:23:48.297Z,2.83
2023-02-17T07:26:15.022Z,2.93
2023-02-17T07:28:41.718Z,3.03
2023-02-17T07:31:14.798Z,3.12
2023-02-17T07:33:42.874Z,3.22
2023-02-17T07:36:12.691Z,3.33
2023-02-17T07:38:40.703Z,3.46
2023-02-17T07:41:12.971Z,3.56
2023-02-17T07:43:40.185Z,3.66
2023-02-17T07:46:13.795Z,3.76
2023-02-17T07:48:40.868Z,3.84
2023-02-17T07:51:13.381Z,3.90
2023-02-17T07:53:40.179Z,3.94
2023-02-17T07:56:09.547Z,3.98
2023-02-17T07:58:38.559Z,4.01
2023-02-17T08:01:14.274Z,4.06
2023-02-17T08:03:42.395Z,4.14
2023-02-17T08:06:14.452Z,4.23
2023-02-17T08:09:00.768Z,4.33
2023-02-17T08:11:48.844Z,4.44
2023-02-17T08:14:20.024Z,4.56
2023-02-17T08:16:46.954Z,4.65
2023-02-17T08:19:13.862Z,4.73
2023-02-17T08:21:40.898Z,4.80
2023-02-17T08:24:07.782Z,4.88
2023-02-17T08:26:34.688Z,4.94
2023-02-17T08:29:01.622Z,5.04
2023-02-17T08:31:31.513Z,5.13
2023-02-17T08:34:00.968Z,5.23
2023-02-17T08:36:29.197Z,5.32
2023-02-17T08:38:57.336Z,5.40
2023-02-17T08:41:31.688Z,5.45
2023-02-17T08:44:00.791Z,5.52
2023-02-17T08:46:29.147Z,5.58
2023-02-17T08:48:56.094Z,5.60
2023-02-17T08:51:27.178Z,5.60
2023-02-17T08:53:56.911Z,5.61
2023-02-17T08:56:25.829Z,5.66
2023-02-17T08:58:53.655Z,5.70
2023-02-17T09:01:21.257Z,5.75
2023-02-17T09:03:50.884Z,5.81
2023-02-17T09:06:18.963Z,5.92
2023-02-17T09:08:45.877Z,6.07
2023-02-17T09:11:14.976Z,6.18
2023-02-17T09:13:41.719Z,6.28
2023-02-17T09:16:08.790Z,6.37
2023-02-17T09:18:35.959Z,6.45
2023-02-17T09:21:10.851Z,6.52
2023-02-17T09:23:38.257Z,6.58
2023-02-17T09:26:08.271Z,6.61
2023-02-17T09:28:35.714Z,6.61
2023-02-17T09:31:21.496Z,6.59
2023-02-17T09:33:49.729Z,6.52
2023-02-17T09:36:20.269Z,6.46
2023-02-17T09:38:48.756Z,6.41
2023-02-17T09:41:40.638Z,6.37
2023-02-17T09:44:17.012Z,6.32
2023-02-17T09:47:02.512Z,6.25
2023-02-17T09:49:39.512Z,6.22
2023-02-17T09:52:41.497Z,6.19
2023-02-17T09:55:32.558Z,6.14
2023-02-17T09:58:05.309Z,6.14
2023-02-17T10:00:57.695Z,6.16
2023-02-17T10:03:49.698Z,6.20
2023-02-17T10:06:43.847Z,6.26
2023-02-17T10:09:25.840Z,6.31
2023-02-17T10:12:09.241Z,6.34
2023-02-17T10:15:03.212Z,6.39
2023-02-17T10:18:09.789Z,6.41
2023-02-17T10:21:04.571Z,6.45
2023-02-17T10:23:31.746Z,6.52
2023-02-17T10:26:34.882Z,6.58
2023-02-17T10:29:31.688Z,6.63
2023-02-17T10:32:13.340Z,6.67
2023-02-17T10:35:21.394Z,6.68
2023-02-17T10:38:08.143Z,6.71
2023-02-17T10:40:35.086Z,6.76
2023-02-17T10:43:07.675Z,6.77
2023-02-17T10:45:37.937Z,6.77
2023-02-17T10:48:13.784Z,6.78
2023-02-17T10:50:46.101Z,6.81
2023-02-17T10:53:24.861Z,6.83
2023-02-17T10:56:22.760Z,6.85
2023-02-17T10:59:14.639Z,6.85
2023-02-17T11:01:49.259Z,6.86
2023-02-17T11:04:16.301Z,6.90
2023-02-17T11:06:57.280Z,6.94
2023-02-17T11:09:28.914Z,7.00
2023-02-17T11:12:03.740Z,7.04
2023-02-17T11:14:33.036Z,7.08
2023-02-17T11:17:14.312Z,7.10
2023-02-17T11:19:41.543Z,7.08
2023-02-17T11:22:41.056Z,7.04
2023-02-17T11:25:25.327Z,6.95
2023-02-17T11:27:55.653Z,6.91
2023-02-17T11:30:25.654Z,6.87
2023-02-17T11:32:54.645Z,6.80
2023-02-17T11:35:35.551Z,6.72
2023-02-17T11:38:10.466Z,6.62
2023-02-17T11:40:37.735Z,6.53
2023-02-17T11:43:07.435Z,6.48
2023-02-17T11:46:00.483Z,6.44
2023-02-17T11:48:43.325Z,6.42
2023-02-17T11:51:39.152Z,6.42
2023-02-17T11:54:33.557Z,6.42
2023-02-17T11:57:12.125Z,6.42
2023-02-17T11:59:38.959Z,6.43
2023-02-17T12:02:16.782Z,6.44
2023-02-17T12:05:01.295Z,6.46
2023-02-17T12:07:50.925Z,6.49
2023-02-17T12:10:39.337Z,6.53
2023-02-17T12:13:33.984Z,6.59
2023-02-17T12:16:07.004Z,6.68
2023-02-17T12:19:01.638Z,6.77
2023-02-17T12:21:54.924Z,6.86
2023-02-17T12:24:30.677Z,6.96
2023-02-17T12:27:08.441Z,7.07
2023-02-17T12:29:56.682Z,7.13
2023-02-17T12:32:23.476Z,7.16
2023-02-17T12:34:56.368Z,7.21
2023-02-17T12:37:38.298Z,7.30
2023-02-17T12:40:39.041Z,7.40
2023-02-17T12:43:21.375Z,7.45
2023-02-17T12:45:48.688Z,7.48
2023-02-17T12:48:29.937Z,7.53
2023-02-17T12:51:11.867Z,7.60
2023-02-17T12:53:50.848Z,7.69
2023-02-17T12:56:37.286Z,7.77
2023-02-17T12:59:34.782Z,7.81
2023-02-17T13:02:12.321Z,7.81
2023-02-17T13:04:42.045Z,7.79
2023-02-17T13:07:13.018Z,7.74
2023-02-17T13:09:43.974Z,7.71
2023-02-17T13:12:22.732Z,7.72
2023-02-17T13:15:07.790Z,7.72
2023-02-17T13:17:40.322Z,7.71
2023-02-17T13:20:09.846Z,7.67
2023-02-17T13:22:44.477Z,7.66
2023-02-17T13:25:25.336Z,7.62
2023-02-17T13:27:52.886Z,7.61
2023-02-17T13:30:25.517Z,7.58
2023-02-17T13:33:14.254Z,7.57
2023-02-17T13:35:41.121Z,7.59
2023-02-17T13:38:10.030Z,7.62
2023-02-17T13:40:43.005Z,7.65
2023-02-17T13:43:17.690Z,7.70
2023-02-17T13:45:49.216Z,7.73
2023-02-17T13:48:20.995Z,7.78
2023-02-17T13:50:50.725Z,7.85
2023-02-17T13:53:31.048Z,7.91
2023-02-17T13:56:01.353Z,7.99
2023-02-17T13:58:31.688Z,8.04
2023-02-17T14:01:01.074Z,8.08
2023-02-17T14:03:33.356Z,8.11
2023-02-17T14:06:02.198Z,8.14
2023-02-17T14:08:46.980Z,8.16
2023-02-17T14:11:26.954Z,8.14
2023-02-17T14:13:58.774Z,8.11
2023-02-17T14:16:35.035Z,8.07
2023-02-17T14:19:04.628Z,8.03
2023-02-17T14:21:31.757Z,7.97
2023-02-17T14:23:59.461Z,7.91
2023-02-17T14:26:48.542Z,7.87
2023-02-17T14:29:16.021Z,7.83
2023-02-17T14:31:49.200Z,7.80
2023-02-17T14:34:29.562Z,7.79
2023-02-17T14:37:23.377Z,7.77
2023-02-17T14:39:54.015Z,7.73
2023-02-17T14:42:20.735Z,7.70
2023-02-17T14:44:47.561Z,7.66
2023-02-17T14:47:16.271Z,7.63
2023-02-17T14:49:47.842Z,7.59
2023-02-17T14:52:28.142Z,7.55
2023-02-17T14:55:14.995Z,7.51
2023-02-17T14:57:46.961Z,7.47
2023-02-17T15:00:19.485Z,7.45
2023-02-17T15:02:46.374Z,7.43
2023-02-17T15:05:13.467Z,7.41
2023-02-17T15:07:41.743Z,7.39
2023-02-17T15:10:24.544Z,7.37
2023-02-17T15:12:52.765Z,7.35
2023-02-17T15:15:20.250Z,7.33
2023-02-17T15:17:49.911Z,7.31
2023-02-17T15:20:16.798Z,7.29
2023-02-17T15:22:45.988Z,7.28
2023-02-17T15:25:18.607Z,7.28
2023-02-17T15:27:45.934Z,7.28
2023-02-17T15:30:18.584Z,7.28
2023-02-17T15:32:47.717Z,7.26
2023-02-17T15:35:27.461Z,7.23
2023-02-17T15:38:00.541Z,7.20
2023-02-17T15:40:29.984Z,7.17
2023-02-17T15:43:08.225Z,7.14
2023-02-17T15:45:52.537Z,7.11
2023-02-17T15:48:24.677Z,7.08
2023-02-17T15:50:52.628Z,7.05
2023-02-17T15:53:25.131Z,7.03
2023-02-17T15:55:52.676Z,7.01
2023-02-17T15:58:22.616Z,6.99
2023-02-17T16:00:50.763Z,6.97
2023-02-17T16:03:18.795Z,6.96
2023-02-17T16:05:45.763Z,6.94
2023-02-17T16:08:12.657Z,6.93
2023-02-17T16:10:41.855Z,6.92
2023-02-17T16:13:14.188Z,6.90
2023-02-17T16:15:44.657Z,6.89
2023-02-17T16:18:21.777Z,6.88
2023-02-17T16:20:49.007Z,6.87
2023-02-17T16:23:15.902Z,6.87
2023-02-17T16:25:45.045Z,6.87
2023-02-17T16:28:19.830Z,6.88
2023-02-17T16:30:49.035Z,6.87
2023-02-17T16:33:16.777Z,6.89
2023-02-17T16:35:44.052Z,6.89
2023-02-17T16:38:22.332Z,6.90
2023-02-17T16:40:52.611Z,6.89
2023-02-17T16:43:22.801Z,6.89
2023-02-17T16:45:54.498Z,6.89
2023-02-17T16:48:27.763Z,6.89
2023-02-17T16:50:56.484Z,6.88
2023-02-17T16:53:24.010Z,6.87
2023-02-17T16:55:53.340Z,6.87
2023-02-17T16:58:22.547Z,6.86
2023-02-17T17:00:52.167Z,6.87
2023-02-17T17:03:21.580Z,6.88
2023-02-17T17:05:50.840Z,6.89
2023-02-17T17:08:19.475Z,6.92
2023-02-17T17:10:48.821Z,6.96
2023-02-17T17:13:16.265Z,6.99
2023-02-17T17:15:45.177Z,7.02
2023-02-17T17:18:21.613Z,7.06
2023-02-17T17:20:49.553Z,7.11
2023-02-17T17:23:18.264Z,7.15
2023-02-17T17:25:46.351Z,7.22
2023-02-17T17:28:20.155Z,7.29
2023-02-17T17:30:47.409Z,7.34
2023-02-17T17:33:15.582Z,7.39
2023-02-17T17:35:42.625Z,7.43
2023-02-17T17:38:14.743Z,7.45
2023-02-17T17:40:52.531Z,7.45
2023-02-17T17:43:21.486Z,7.45
2023-02-17T17:45:51.847Z,7.44
2023-02-17T17:48:18.762Z,7.42
2023-02-17T17:50:45.791Z,7.40
2023-02-17T17:53:12.583Z,7.38
2023-02-17T17:55:39.418Z,7.35
2023-02-17T17:58:06.274Z,7.32
2023-02-17T18:00:33.092Z,7.30
2023-02-17T18:02:59.954Z,7.28
2023-02-17T18:05:27.357Z,7.25
2023-02-17T18:07:54.247Z,7.22
2023-02-17T18:10:21.141Z,7.20
2023-02-17T18:12:49.003Z,7.19
2023-02-17T18:15:17.291Z,7.19
2023-02-17T18:17:45.870Z,7.19
2023-02-17T18:20:17.001Z,7.20
2023-02-17T18:22:43.896Z,7.20
2023-02-17T18:25:12.824Z,7.21
2023-02-17T18:27:42.449Z,7.20
2023-02-17T18:30:11.700Z,7.19
2023-02-17T18:32:38.586Z,7.18
2023-02-17T18:35:06.704Z,7.17
2023-02-17T18:37:35.954Z,7.16
2023-02-17T18:40:03.640Z,7.15
2023-02-17T18:42:30.448Z,7.15
2023-02-17T18:45:00.899Z,7.16
2023-02-17T18:47:27.612Z,7.16
2023-02-17T18:49:57.054Z,7.18
2023-02-17T18:52:26.214Z,7.19
2023-02-17T18:54:53.166Z,7.21
2023-02-17T18:57:22.099Z,7.23
2023-02-17T18:59:54.368Z,7.25
2023-02-17T19:02:23.417Z,7.28
2023-02-17T19:04:55.584Z,7.31
2023-02-17T19:07:30.734Z,7.34
2023-02-17T19:10:00.018Z,7.35
2023-02-17T19:12:27.191Z,7.37
2023-02-17T19:14:55.489Z,7.39
2023-02-17T19:17:23.311Z,7.41
2023-02-17T19:19:51.060Z,7.43
2023-02-17T19:22:18.731Z,7.44
2023-02-17T19:24:51.082Z,7.45
2023-02-17T19:27:21.046Z,7.47
2023-02-17T19:29:48.268Z,7.48
2023-02-17T19:32:17.358Z,7.50
2023-02-17T19:34:44.083Z,7.51
2023-02-17T19:37:11.175Z,7.53
2023-02-17T19:39:38.080Z,7.54
2023-02-17T19:42:04.998Z,7.56
2023-02-17T19:44:31.956Z,7.56
2023-02-17T19:46:58.763Z,7.56
2023-02-17T19:49:26.153Z,7.57
2023-02-17T19:52:07.101Z,7.57
2023-02-17T19:54:38.347Z,7.61
2023-02-17T19:57:05.076Z,7.65
2023-02-17T19:59:35.542Z,7.70
2023-02-17T20:02:04.270Z,7.75
2023-02-17T20:04:31.086Z,7.81
2023-02-17T20:06:58.075Z,7.86
2023-02-17T20:09:25.000Z,7.91
2023-02-17T20:12:00.303Z,7.94
2023-02-17T20:14:32.263Z,7.96
2023-02-17T20:17:00.345Z,7.98
2023-02-17T20:19:30.392Z,8.00
2023-02-17T20:21:57.134Z,8.02
2023-02-17T20:24:30.421Z,8.03
2023-02-17T20:27:04.638Z,8.04
2023-02-17T20:29:33.732Z,8.06
2023-02-17T20:32:00.730Z,8.07
2023-02-17T20:34:44.728Z,8.07
2023-02-17T20:37:18.701Z,8.04
2023-02-17T20:39:52.764Z,8.01
2023-02-17T20:42:19.630Z,7.97
2023-02-17T20:44:50.401Z,7.97
2023-02-17T20:47:28.986Z,7.98
2023-02-17T20:49:56.022Z,8.02
2023-02-17T20:52:30.455Z,8.09
2023-02-17T20:55:08.173Z,8.13
2023-02-17T20:57:41.006Z,8.13
2023-02-17T21:00:16.003Z,8.13
2023-02-17T21:02:42.793Z,8.12
2023-02-17T21:05:10.114Z,8.14
2023-02-17T21:07:38.011Z,8.17
2023-02-17T21:10:24.045Z,8.19
2023-02-17T21:12:52.308Z,8.20
2023-02-17T21:15:23.341Z,8.19
2023-02-17T21:17:50.208Z,8.18
2023-02-17T21:21:00.270Z,8.17
2023-02-17T21:23:29.812Z,8.20
2023-02-17T21:25:56.794Z,8.22
2023-02-17T21:28:34.836Z,8.22
2023-02-17T21:31:03.314Z,8.24
2023-02-17T21:33:41.126Z,8.27
2023-02-17T21:36:21.330Z,8.29
2023-02-17T21:38:50.602Z,8.30
2023-02-17T21:41:23.549Z,8.28
2023-02-17T21:44:13.950Z,8.28
2023-02-17T21:46:42.794Z,8.27
2023-02-17T21:49:18.190Z,8.25
2023-02-17T21:51:44.853Z,8.22
2023-02-17T21:54:11.838Z,8.20
2023-02-17T21:56:39.662Z,8.17
2023-02-17T21:59:09.630Z,8.13
2023-02-17T22:01:37.402Z,8.10
2023-02-17T22:04:05.663Z,8.05
2023-02-17T22:06:48.973Z,8.01
2023-02-17T22:09:56.825Z,7.98
2023-02-17T22:12:23.608Z,7.98
2023-02-17T22:14:53.397Z,7.98
2023-02-17T22:17:20.114Z,7.93
2023-02-17T22:19:49.275Z,7.86
2023-02-17T22:22:20.831Z,7.78
2023-02-17T22:24:54.922Z,7.71
2023-02-17T22:27:29.279Z,7.63
2023-02-17T22:29:58.094Z,7.56
2023-02-17T22:32:35.545Z,7.50
2023-02-17T22:35:05.238Z,7.47
2023-02-17T22:37:39.929Z,7.44
2023-02-17T22:40:10.383Z,7.41
2023-02-17T22:42:37.203Z,7.39
2023-02-17T22:45:06.324Z,7.38
2023-02-17T22:47:37.509Z,7.35
2023-02-17T22:50:06.840Z,7.33
2023-02-17T22:52:34.555Z,7.31
2023-02-17T22:55:01.430Z,7.28
2023-02-17T22:57:28.336Z,7.25
2023-02-17T22:59:58.116Z,7.22
2023-02-17T23:02:28.020Z,7.19
2023-02-17T23:04:56.428Z,7.17
2023-02-17T23:07:23.607Z,7.16
2023-02-17T23:09:50.348Z,7.13
2023-02-17T23:12:18.348Z,7.13
2023-02-17T23:14:51.932Z,7.12
2023-02-17T23:17:22.968Z,7.11
2023-02-17T23:19:52.192Z,7.11
2023-02-17T23:22:18.846Z,7.11
2023-02-17T23:24:50.818Z,7.12
2023-02-17T23:27:17.585Z,7.12
2023-02-17T23:29:48.410Z,7.11
2023-02-17T23:32:16.970Z,7.11
2023-02-17T23:34:43.925Z,7.12
2023-02-17T23:37:15.584Z,7.13
2023-02-17T23:40:05.325Z,7.11
2023-02-17T23:42:32.045Z,7.10
2023-02-17T23:45:00.405Z,7.08
2023-02-17T23:47:27.152Z,7.06
2023-02-17T23:49:53.972Z,7.05
2023-02-17T23:52:23.078Z,7.05
2023-02-17T23:54:50.373Z,7.05
2023-02-17T23:57:17.182Z,7.05
2023-02-17T23:59:44.102Z,7.05
